createdAt,value
2018-05-07T00:02:20.915Z,48.50
2018-05-07T00:04:48.339Z,49.50
2018-05-07T00:07:15.871Z,49.40
2018-05-07T00:09:43.321Z,49.00
2018-05-07T00:12:10.809Z,48.90
2018-05-07T00:14:38.298Z,49.40
2018-05-07T00:17:06.205Z,49.90
2018-05-07T00:19:33.708Z,49.90
2018-05-07T00:22:01.141Z,49.30
2018-05-07T00:24:28.590Z,49.10
2018-05-07T00:26:56.097Z,49.40
2018-05-07T00:29:23.535Z,49.90
2018-05-07T00:31:50.986Z,49.90
2018-05-07T00:34:18.441Z,50.30
2018-05-07T00:36:45.899Z,50.50
2018-05-07T00:39:13.922Z,50.40
2018-05-07T00:41:41.361Z,50.80
2018-05-07T00:44:08.820Z,50.60
2018-05-07T00:46:36.272Z,50.40
2018-05-07T00:49:03.733Z,51.00
2018-05-07T00:51:31.223Z,50.90
2018-05-07T00:53:58.765Z,50.30
2018-05-07T00:56:26.226Z,50.30
2018-05-07T00:58:53.679Z,50.70
2018-05-07T01:01:21.107Z,50.70
2018-05-07T01:03:48.624Z,50.70
2018-05-07T01:06:16.069Z,50.50
2018-05-07T01:08:43.496Z,50.80
2018-05-07T01:11:10.936Z,50.50
2018-05-07T01:13:38.460Z,50.10
2018-05-07T01:16:06.017Z,50.10
2018-05-07T01:18:33.446Z,50.20
2018-05-07T01:21:00.888Z,50.20
2018-05-07T01:23:28.707Z,50.30
2018-05-07T01:25:56.869Z,50.30
2018-05-07T01:28:24.367Z,50.90
2018-05-07T01:30:51.801Z,51.00
2018-05-07T01:33:19.244Z,51.30
2018-05-07T01:35:47.139Z,51.30
2018-05-07T01:38:14.574Z,51.30
2018-05-07T01:40:42.071Z,51.70
2018-05-07T01:43:09.518Z,51.30
2018-05-07T01:45:36.997Z,51.80
2018-05-07T01:48:04.426Z,51.80
2018-05-07T01:50:31.924Z,51.90
2018-05-07T01:52:59.362Z,52.00
2018-05-07T01:55:26.794Z,52.10
2018-05-07T01:57:54.936Z,52.20
2018-05-07T02:00:22.366Z,52.20
2018-05-07T02:02:49.811Z,52.10
2018-05-07T02:05:17.409Z,52.10
2018-05-07T02:07:44.870Z,51.50
2018-05-07T02:10:12.301Z,52.00
2018-05-07T02:12:39.790Z,52.50
2018-05-07T02:15:07.226Z,52.00
2018-05-07T02:17:34.727Z,52.40
2018-05-07T02:20:02.160Z,52.00
2018-05-07T02:22:29.675Z,52.20
2018-05-07T02:24:57.130Z,52.20
2018-05-07T02:27:24.569Z,51.40
2018-05-07T02:29:53.799Z,52.10
2018-05-07T02:32:21.261Z,52.00
2018-05-07T02:34:48.729Z,52.30
2018-05-07T02:37:16.189Z,52.70
2018-05-07T02:39:43.657Z,52.70
2018-05-07T02:42:11.165Z,52.70
2018-05-07T02:44:38.630Z,53.10
2018-05-07T02:47:06.107Z,53.30
2018-05-07T02:49:33.578Z,53.30
2018-05-07T02:52:01.036Z,53.10
2018-05-07T02:54:28.528Z,52.90
2018-05-07T02:56:55.969Z,53.30
2018-05-07T02:59:23.453Z,53.30
2018-05-07T03:01:51.236Z,53.40
2018-05-07T03:04:18.783Z,53.30
2018-05-07T03:06:46.268Z,53.40
2018-05-07T03:09:14.327Z,53.30
2018-05-07T03:11:41.788Z,53.30
2018-05-07T03:14:09.251Z,53.40
2018-05-07T03:16:36.728Z,53.70
2018-05-07T03:19:04.273Z,53.40
2018-05-07T03:21:31.823Z,53.40
2018-05-07T03:23:59.302Z,53.70
2018-05-07T03:26:26.770Z,53.60
2018-05-07T03:28:54.892Z,53.60
2018-05-07T03:31:22.334Z,53.70
2018-05-07T03:33:50.295Z,54.20
2018-05-07T03:36:18.167Z,54.20
2018-05-07T03:38:46.030Z,54.20
2018-05-07T03:41:13.913Z,54.20
2018-05-07T03:43:41.828Z,54.40
2018-05-07T03:46:09.285Z,54.40
2018-05-07T03:48:36.813Z,54.40
2018-05-07T03:51:04.236Z,54.70
2018-05-07T03:53:31.704Z,54.80
2018-05-07T03:55:59.225Z,55.00
2018-05-07T03:58:26.730Z,55.30
2018-05-07T04:00:54.181Z,55.70
2018-05-07T04:03:21.656Z,55.80
2018-05-07T04:05:52.186Z,56.00
2018-05-07T04:08:19.751Z,56.10
2018-05-07T04:10:47.208Z,56.30
2018-05-07T04:13:14.723Z,56.50
2018-05-07T04:15:42.128Z,56.30
2018-05-07T04:18:21.582Z,56.60
2018-05-07T04:21:00.841Z,56.60
2018-05-07T04:23:40.698Z,56.90
2018-05-07T04:26:08.165Z,57.00
2018-05-07T04:28:35.678Z,57.10
2018-05-07T04:31:03.144Z,57.20
2018-05-07T04:33:30.706Z,57.60
2018-05-07T04:35:58.181Z,57.90
2018-05-07T04:38:25.645Z,58.00
2018-05-07T04:40:53.194Z,58.10
2018-05-07T04:43:20.738Z,58.30
2018-05-07T04:45:48.106Z,58.20
2018-05-07T04:48:15.565Z,58.40
2018-05-07T04:50:43.031Z,58.60
2018-05-07T04:53:10.492Z,59.00
2018-05-07T04:55:37.943Z,59.00
2018-05-07T04:58:05.396Z,59.20
2018-05-07T05:00:32.889Z,59.40
2018-05-07T05:03:00.347Z,59.60
2018-05-07T05:05:27.861Z,59.70
2018-05-07T05:07:55.388Z,59.90
2018-05-07T05:10:22.833Z,60.20
2018-05-07T05:12:50.804Z,59.80
2018-05-07T05:15:18.279Z,59.70
2018-05-07T05:17:45.775Z,57.60
2018-05-07T05:20:13.305Z,57.20
2018-05-07T05:22:40.750Z,58.30
2018-05-07T05:25:08.227Z,57.60
2018-05-07T05:27:35.688Z,56.80
2018-05-07T05:30:03.164Z,55.80
2018-05-07T05:32:31.040Z,54.70
2018-05-07T05:34:58.487Z,54.70
2018-05-07T05:37:26.060Z,54.30
2018-05-07T05:39:53.607Z,54.20
2018-05-07T05:42:21.068Z,53.90
2018-05-07T05:44:48.932Z,53.90
2018-05-07T05:47:16.404Z,54.60
2018-05-07T05:49:43.859Z,53.10
2018-05-07T05:52:11.312Z,52.60
2018-05-07T05:54:38.864Z,53.30
2018-05-07T05:57:06.359Z,52.00
2018-05-07T05:59:33.932Z,51.90
2018-05-07T06:02:01.402Z,52.10
2018-05-07T06:04:28.949Z,52.10
2018-05-07T06:06:56.523Z,52.70
2018-05-07T06:09:24.074Z,51.30
2018-05-07T06:11:51.530Z,51.30
2018-05-07T06:14:18.996Z,51.20
2018-05-07T06:16:46.448Z,51.20
2018-05-07T06:19:13.924Z,52.80
2018-05-07T06:21:41.495Z,51.20
2018-05-07T06:24:09.003Z,50.10
2018-05-07T06:26:36.512Z,50.50
2018-05-07T06:29:04.090Z,50.10
2018-05-07T06:31:31.556Z,49.90
2018-05-07T06:33:59.019Z,50.00
2018-05-07T06:36:26.479Z,49.60
2018-05-07T06:38:53.933Z,49.30
2018-05-07T06:41:21.393Z,49.40
2018-05-07T06:43:48.877Z,49.30
2018-05-07T06:46:16.744Z,49.40
2018-05-07T06:48:44.685Z,48.80
2018-05-07T06:51:12.147Z,48.90
2018-05-07T06:53:39.604Z,48.70
2018-05-07T06:56:07.185Z,48.90
2018-05-07T06:58:34.672Z,49.20
2018-05-07T07:01:02.259Z,48.20
2018-05-07T07:03:30.047Z,48.20
2018-05-07T07:05:57.613Z,48.30
2018-05-07T07:08:25.279Z,47.70
2018-05-07T07:10:52.829Z,47.80
2018-05-07T07:13:20.497Z,47.80
2018-05-07T07:15:48.046Z,47.60
2018-05-07T07:18:15.508Z,47.60
2018-05-07T07:20:43.482Z,48.30
2018-05-07T07:23:11.344Z,48.10
2018-05-07T07:25:39.208Z,48.40
2018-05-07T07:28:07.212Z,47.90
2018-05-07T07:30:35.190Z,47.90
2018-05-07T07:33:02.836Z,48.20
2018-05-07T07:35:32.083Z,48.70
2018-05-07T07:37:59.575Z,48.10
2018-05-07T07:40:27.130Z,47.70
2018-05-07T07:42:54.694Z,47.70
2018-05-07T07:45:22.202Z,47.60
2018-05-07T07:47:49.841Z,47.80
2018-05-07T07:50:17.706Z,48.40
2018-05-07T07:52:45.163Z,48.50
2018-05-07T07:55:12.811Z,48.20
2018-05-07T07:57:40.348Z,48.10
2018-05-07T08:00:07.804Z,47.60
2018-05-07T08:02:35.273Z,48.30
2018-05-07T08:05:02.781Z,47.50
2018-05-07T08:07:30.345Z,47.70
2018-05-07T08:09:57.885Z,47.40
2018-05-07T08:12:25.366Z,47.60
2018-05-07T08:14:52.834Z,46.90
2018-05-07T08:17:20.300Z,47.20
2018-05-07T08:19:47.872Z,46.40
2018-05-07T08:22:15.500Z,46.10
2018-05-07T08:24:42.992Z,46.80
2018-05-07T08:27:10.560Z,46.40
2018-05-07T08:29:38.142Z,45.80
2018-05-07T08:32:05.992Z,45.90
2018-05-07T08:34:33.550Z,45.90
2018-05-07T08:37:01.034Z,45.50
2018-05-07T08:39:28.898Z,45.30
2018-05-07T08:41:56.745Z,45.00
2018-05-07T08:44:24.288Z,45.00
2018-05-07T08:46:51.814Z,45.20
2018-05-07T08:49:19.680Z,45.20
2018-05-07T08:51:47.606Z,44.90
2018-05-07T08:54:15.087Z,44.90
2018-05-07T08:56:42.560Z,44.80
2018-05-07T08:59:10.805Z,44.80
2018-05-07T09:01:38.276Z,44.70
2018-05-07T09:04:05.744Z,44.60
2018-05-07T09:06:33.206Z,44.30
2018-05-07T09:09:00.679Z,43.70
2018-05-07T09:11:28.145Z,43.50
2018-05-07T09:13:55.607Z,43.10
2018-05-07T09:16:23.063Z,43.20
2018-05-07T09:18:50.628Z,42.30
2018-05-07T09:21:18.155Z,42.20
2018-05-07T09:23:46.036Z,40.80
2018-05-07T09:26:13.536Z,40.80
2018-05-07T09:28:40.989Z,40.40
2018-05-07T09:31:08.458Z,39.90
2018-05-07T09:33:35.908Z,39.10
2018-05-07T09:36:03.405Z,38.00
2018-05-07T09:38:30.873Z,38.10
2018-05-07T09:40:58.819Z,36.60
2018-05-07T09:43:26.280Z,36.60
2018-05-07T09:45:53.840Z,36.20
2018-05-07T09:48:21.332Z,35.40
2018-05-07T09:50:48.782Z,35.10
2018-05-07T09:53:16.650Z,34.20
2018-05-07T09:55:44.177Z,34.20
2018-05-07T09:58:11.974Z,33.50
2018-05-07T10:00:39.487Z,33.50
2018-05-07T10:03:06.973Z,33.40
2018-05-07T10:05:34.445Z,33.20
2018-05-07T10:08:02.365Z,32.90
2018-05-07T10:10:30.227Z,34.40
2018-05-07T10:12:58.232Z,34.90
2018-05-07T10:15:25.704Z,34.80
2018-05-07T10:17:53.180Z,34.00
2018-05-07T10:20:20.684Z,33.90
2018-05-07T10:22:48.236Z,34.90
2018-05-07T10:25:15.759Z,35.10
2018-05-07T10:27:43.229Z,35.70
2018-05-07T10:30:10.729Z,36.30
2018-05-07T10:32:38.290Z,37.10
2018-05-07T10:35:05.846Z,37.30
2018-05-07T10:37:33.423Z,38.70
2018-05-07T10:40:01.287Z,38.20
2018-05-07T10:42:28.752Z,38.30
2018-05-07T10:44:56.323Z,37.70
2018-05-07T10:47:23.785Z,37.50
2018-05-07T10:49:51.688Z,38.10
2018-05-07T10:52:19.221Z,38.10
2018-05-07T10:54:47.090Z,37.60
2018-05-07T10:57:14.646Z,37.60
2018-05-07T10:59:42.112Z,38.30
2018-05-07T11:02:09.641Z,38.20
2018-05-07T11:04:37.100Z,38.60
2018-05-07T11:07:04.559Z,38.60
2018-05-07T11:09:32.049Z,38.30
2018-05-07T11:11:59.845Z,39.00
2018-05-07T11:14:27.361Z,38.60
2018-05-07T11:16:54.949Z,38.60
2018-05-07T11:19:22.528Z,38.70
2018-05-07T11:21:50.086Z,38.30
2018-05-07T11:24:17.946Z,38.70
2018-05-07T11:26:45.700Z,38.70
2018-05-07T11:29:13.163Z,37.80
2018-05-07T11:31:40.643Z,38.00
2018-05-07T11:34:08.123Z,38.10
2018-05-07T11:36:35.989Z,38.70
2018-05-07T11:39:03.579Z,38.70
2018-05-07T11:41:31.011Z,38.00
2018-05-07T11:43:58.491Z,37.50
2018-05-07T11:46:26.448Z,37.10
2018-05-07T11:48:53.916Z,37.10
2018-05-07T11:51:21.785Z,37.50
2018-05-07T11:53:50.067Z,37.50
2018-05-07T11:56:17.637Z,37.40
2018-05-07T11:58:45.508Z,37.80
2018-05-07T12:01:13.383Z,37.20
2018-05-07T12:03:40.916Z,37.20
2018-05-07T12:06:08.484Z,37.60
2018-05-07T12:08:36.159Z,37.90
2018-05-07T12:11:03.638Z,38.00
2018-05-07T12:13:31.480Z,37.70
2018-05-07T12:15:59.287Z,37.70
2018-05-07T12:18:26.831Z,37.20
2018-05-07T12:20:54.298Z,37.90
2018-05-07T12:23:21.825Z,37.60
2018-05-07T12:25:49.645Z,37.90
2018-05-07T12:28:17.562Z,37.50
2018-05-07T12:30:45.018Z,37.50
2018-05-07T12:33:12.520Z,38.10
2018-05-07T12:35:40.089Z,37.80
2018-05-07T12:38:07.561Z,37.50
2018-05-07T12:40:35.120Z,37.10
2018-05-07T12:43:02.623Z,37.60
2018-05-07T12:45:30.156Z,36.20
2018-05-07T12:47:58.344Z,36.70
2018-05-07T12:50:26.210Z,36.50
2018-05-07T12:52:54.084Z,36.50
2018-05-07T12:55:21.948Z,36.50
2018-05-07T12:57:49.969Z,36.10
2018-05-07T13:00:17.425Z,36.10
2018-05-07T13:02:44.926Z,35.80
2018-05-07T13:05:12.497Z,35.70
2018-05-07T13:07:40.073Z,36.10
2018-05-07T13:10:07.600Z,36.30
2018-05-07T13:12:35.101Z,36.00
2018-05-07T13:15:02.584Z,35.70
2018-05-07T13:17:30.546Z,35.90
2018-05-07T13:19:58.501Z,36.10
2018-05-07T13:22:26.080Z,36.10
2018-05-07T13:24:54.054Z,36.80
2018-05-07T13:27:21.448Z,36.80
2018-05-07T13:29:49.344Z,38.80
2018-05-07T13:32:16.839Z,38.80
2018-05-07T13:34:44.313Z,37.90
2018-05-07T13:37:12.261Z,38.00
2018-05-07T13:39:39.743Z,38.00
2018-05-07T13:42:07.702Z,38.60
2018-05-07T13:44:35.184Z,38.60
2018-05-07T13:47:03.144Z,38.30
2018-05-07T13:49:30.614Z,38.30
2018-05-07T13:51:58.095Z,38.50
2018-05-07T13:54:25.946Z,38.80
2018-05-07T13:56:53.896Z,38.40
2018-05-07T13:59:21.781Z,38.20
2018-05-07T14:01:49.233Z,38.20
2018-05-07T14:04:16.797Z,38.30
2018-05-07T14:06:44.305Z,38.30
2018-05-07T14:09:11.830Z,38.80
2018-05-07T14:11:39.289Z,39.10
2018-05-07T14:14:06.750Z,39.30
2018-05-07T14:16:34.253Z,38.80
2018-05-07T14:19:02.181Z,38.40
2018-05-07T14:21:29.768Z,38.40
2018-05-07T14:23:57.239Z,37.60
2018-05-07T14:26:24.710Z,38.00
2018-05-07T14:28:52.570Z,38.30
2018-05-07T14:31:20.513Z,38.30
2018-05-07T14:33:48.015Z,38.30
2018-05-07T14:49:21.700Z,35.90
2018-05-07T14:51:49.675Z,35.70
2018-05-07T14:54:17.663Z,35.90
2018-05-07T14:56:45.232Z,35.90
2018-05-07T14:59:12.757Z,36.00
2018-05-07T15:01:40.349Z,35.40
2018-05-07T15:04:08.196Z,36.70
2018-05-07T15:06:36.074Z,35.70
2018-05-07T15:09:03.538Z,35.70
2018-05-07T15:11:30.992Z,35.70
2018-05-07T15:14:10.308Z,35.20
2018-05-07T15:16:37.769Z,35.80
2018-05-07T15:19:05.237Z,34.90
2018-05-07T15:21:32.792Z,34.60
2018-05-07T15:24:00.281Z,34.10
2018-05-07T15:26:28.631Z,34.30
2018-05-07T15:28:56.106Z,34.80
2018-05-07T15:31:23.550Z,35.20
2018-05-07T15:33:51.016Z,34.70
2018-05-07T15:36:18.481Z,34.30
2018-05-07T15:38:46.058Z,34.60
2018-05-07T15:41:13.525Z,34.90
2018-05-07T15:43:41.153Z,35.10
2018-05-07T15:46:09.061Z,34.40
2018-05-07T15:48:36.510Z,34.40
2018-05-07T15:51:04.024Z,34.70
2018-05-07T15:53:31.485Z,34.70
2018-05-07T15:55:59.419Z,33.70
2018-05-07T15:58:27.099Z,33.70
2018-05-07T16:00:57.685Z,33.00
2018-05-07T16:03:25.206Z,33.30
2018-05-07T16:05:53.165Z,33.30
2018-05-07T16:08:20.645Z,33.30
2018-05-07T16:10:48.181Z,33.10
2018-05-07T16:13:15.752Z,33.40
2018-05-07T16:15:43.314Z,32.90
2018-05-07T16:18:11.812Z,33.20
2018-05-07T16:20:39.732Z,32.30
2018-05-07T16:23:07.186Z,32.30
2018-05-07T16:25:34.771Z,32.40
2018-05-07T16:28:02.383Z,32.60
2018-05-07T16:30:30.346Z,33.10
2018-05-07T16:32:57.928Z,33.10
2018-05-07T16:35:25.932Z,32.90
2018-05-07T16:37:53.442Z,32.90
2018-05-07T16:40:21.144Z,33.20
2018-05-07T16:42:48.698Z,33.40
2018-05-07T16:45:20.065Z,33.40
2018-05-07T16:47:47.535Z,33.40
2018-05-07T16:50:15.047Z,33.50
2018-05-07T16:52:42.520Z,33.40
2018-05-07T16:55:09.977Z,33.60
2018-05-07T16:57:37.432Z,33.20
2018-05-07T17:00:04.875Z,33.50
2018-05-07T17:02:32.336Z,33.60
2018-05-07T17:04:59.840Z,33.70
2018-05-07T17:07:28.215Z,33.70
2018-05-07T17:09:55.655Z,33.70
2018-05-07T17:12:23.219Z,33.70
2018-05-07T17:14:50.773Z,33.80
2018-05-07T17:17:18.288Z,33.70
2018-05-07T17:19:46.151Z,33.30
2018-05-07T17:22:13.607Z,33.30
2018-05-07T17:24:41.069Z,33.50
2018-05-07T17:27:08.523Z,33.60
2018-05-07T17:29:36.082Z,33.80
2018-05-07T17:32:03.632Z,34.00
2018-05-07T17:34:31.095Z,34.00
2018-05-07T17:36:58.663Z,33.80
2018-05-07T17:39:26.120Z,33.80
2018-05-07T17:41:53.720Z,33.80
2018-05-07T17:44:33.227Z,33.70
2018-05-07T17:47:12.493Z,33.80
2018-05-07T17:49:40.348Z,34.40
2018-05-07T17:52:08.771Z,34.10
2018-05-07T17:54:36.330Z,34.10
2018-05-07T17:57:03.857Z,34.30
2018-05-07T17:59:31.328Z,34.40
2018-05-07T18:01:58.781Z,34.40
2018-05-07T18:04:26.307Z,34.70
2018-05-07T18:06:53.802Z,34.70
2018-05-07T18:09:21.800Z,35.40
2018-05-07T18:11:49.779Z,36.20
2018-05-07T18:14:17.624Z,36.00
2018-05-07T18:16:45.193Z,36.00
2018-05-07T18:19:13.231Z,36.30
2018-05-07T18:21:40.633Z,36.30
2018-05-07T18:24:08.124Z,36.70
2018-05-07T18:26:35.657Z,36.50
2018-05-07T18:29:03.137Z,36.80
2018-05-07T18:31:31.040Z,37.10
2018-05-07T18:33:58.873Z,37.40
2018-05-07T18:36:26.732Z,38.30
2018-05-07T18:38:54.220Z,38.30
2018-05-07T18:41:22.995Z,38.80
2018-05-07T18:43:50.526Z,39.40
2018-05-07T18:46:17.992Z,40.10
2018-05-07T18:48:45.594Z,40.40
2018-05-07T18:51:13.456Z,41.00
2018-05-07T18:53:40.931Z,41.00
2018-05-07T18:56:08.784Z,41.30
2018-05-07T18:58:38.340Z,41.30
2018-05-07T19:01:07.035Z,41.60
2018-05-07T19:03:36.090Z,41.90
2018-05-07T19:06:05.120Z,41.70
2018-05-07T19:08:33.483Z,41.70
2018-05-07T19:11:02.499Z,42.60
2018-05-07T19:13:30.912Z,42.70
2018-05-07T19:15:59.505Z,43.00
2018-05-07T19:18:28.009Z,43.20
2018-05-07T19:20:56.936Z,43.90
2018-05-07T19:23:25.136Z,44.20
2018-05-07T19:25:53.673Z,44.50
2018-05-07T19:28:22.410Z,44.80
2018-05-07T19:30:51.382Z,44.80
2018-05-07T19:33:19.645Z,44.90
2018-05-07T19:35:47.866Z,45.20
2018-05-07T19:38:15.946Z,45.10
2018-05-07T19:40:44.097Z,45.10
2018-05-07T19:43:12.681Z,45.80
2018-05-07T19:45:42.358Z,45.90
2018-05-07T19:48:10.398Z,45.90
2018-05-07T19:50:38.223Z,45.40
2018-05-07T19:53:06.848Z,46.30
2018-05-07T19:55:35.660Z,46.00
2018-05-07T19:58:03.702Z,46.30
2018-05-07T20:00:32.993Z,46.40
2018-05-07T20:03:02.958Z,46.40
2018-05-07T20:05:31.249Z,46.90
2018-05-07T20:07:59.753Z,46.90
2018-05-07T20:10:28.714Z,47.20
2018-05-07T20:12:56.920Z,47.30
2018-05-07T20:15:25.609Z,46.80
2018-05-07T20:17:54.366Z,47.50
2018-05-07T20:20:23.302Z,46.90
2018-05-07T20:22:51.862Z,46.90
2018-05-07T20:25:21.853Z,47.30
2018-05-07T20:27:50.062Z,47.40
2018-05-07T20:30:18.442Z,47.30
2018-05-07T20:32:47.115Z,47.50
2018-05-07T20:35:15.559Z,47.40
2018-05-07T20:37:43.983Z,47.30
2018-05-07T20:40:12.397Z,47.30
2018-05-07T20:42:40.761Z,47.20
2018-05-07T20:45:09.557Z,47.80
2018-05-07T20:47:37.693Z,47.40
2018-05-07T20:50:06.370Z,47.50
2018-05-07T20:52:35.400Z,47.90
2018-05-07T20:55:05.029Z,47.80
2018-05-07T20:57:33.733Z,47.80
2018-05-07T21:00:02.001Z,47.70
2018-05-07T21:02:30.142Z,47.90
2018-05-07T21:04:59.295Z,47.90
2018-05-07T21:07:27.659Z,47.80
2018-05-07T21:09:55.771Z,47.80
2018-05-07T21:12:24.907Z,48.00
2018-05-07T21:14:52.948Z,48.00
2018-05-07T21:17:21.391Z,48.00
2018-05-07T21:19:49.479Z,48.20
2018-05-07T21:22:18.384Z,48.30
2018-05-07T21:24:47.379Z,48.30
2018-05-07T21:27:15.480Z,48.30
2018-05-07T21:29:43.788Z,48.40
2018-05-07T21:32:12.311Z,48.70
2018-05-07T21:34:41.525Z,48.60
2018-05-07T21:37:09.515Z,48.60
2018-05-07T21:39:37.729Z,48.70
2018-05-07T21:42:05.586Z,48.80
2018-05-07T21:44:34.371Z,48.90
2018-05-07T21:47:02.636Z,49.00
2018-05-07T21:49:31.905Z,49.20
2018-05-07T21:52:00.282Z,49.20
2018-05-07T21:54:29.054Z,49.30
2018-05-07T21:56:57.509Z,49.50
2018-05-07T21:59:26.024Z,49.60
2018-05-07T22:01:53.827Z,49.60
2018-05-07T22:04:21.989Z,49.70
2018-05-07T22:06:50.635Z,49.70
2018-05-07T22:09:18.787Z,49.60
2018-05-07T22:11:46.958Z,49.70
2018-05-07T22:14:15.587Z,49.80
2018-05-07T22:16:43.859Z,49.70
2018-05-07T22:19:11.535Z,50.00
2018-05-07T22:21:39.937Z,50.20
2018-05-07T22:24:07.856Z,49.80
2018-05-07T22:26:36.221Z,49.80
2018-05-07T22:29:04.708Z,49.90
2018-05-07T22:31:32.728Z,50.00
2018-05-07T22:34:01.048Z,50.10
2018-05-07T22:36:29.089Z,49.90
2018-05-07T22:38:57.096Z,50.00
2018-05-07T22:41:24.966Z,50.00
2018-05-07T22:43:53.703Z,50.40
2018-05-07T22:46:21.824Z,50.30
2018-05-07T22:48:49.506Z,50.30
2018-05-07T22:51:18.861Z,50.10
2018-05-07T22:53:47.320Z,50.10
2018-05-07T22:56:16.046Z,50.10
2018-05-07T22:58:44.626Z,50.30
2018-05-07T23:01:12.985Z,50.30
2018-05-07T23:03:41.960Z,50.30
2018-05-07T23:06:10.053Z,50.40
2018-05-07T23:08:38.380Z,50.50
2018-05-07T23:11:06.941Z,50.50
2018-05-07T23:13:35.560Z,50.50
2018-05-07T23:16:03.777Z,50.60
2018-05-07T23:18:32.016Z,50.50
2018-05-07T23:20:59.930Z,50.50
2018-05-07T23:23:28.449Z,50.60
2018-05-07T23:25:56.827Z,50.60
2018-05-07T23:28:24.990Z,50.60
2018-05-07T23:30:53.496Z,50.70
2018-05-07T23:33:22.117Z,50.70
2018-05-07T23:35:50.135Z,50.70
2018-05-07T23:38:18.318Z,50.80
2018-05-07T23:40:46.674Z,50.90
2018-05-07T23:43:14.906Z,50.90
2018-05-07T23:45:43.561Z,50.90
2018-05-07T23:48:11.852Z,50.90
2018-05-07T23:50:40.421Z,50.90
2018-05-07T23:53:08.361Z,51.00
2018-05-07T23:55:36.586Z,51.90
2018-05-07T23:58:05.871Z,51.00
